Time;durP1;ratioP1;P1;durP2;ratioP2;P2;SDS_P1;SDS_P2;PMS_P1;PMS_P2;Temp;Humidity;BMP_temperature;BMP_pressure;BME280_temperature;BME280_humidity;BME280_pressure;Samples;Min_cycle;Max_cycle;Signal;HPM_P1;HPM_P2
2021/12/02 00:01:33;;;;;;;8.32;2.03;;;11.00;88.70;;;;;;4937139;29;20218;-60
2021/12/02 00:03:59;;;;;;;3.20;1.45;;;11.10;88.60;;;;;;4937172;29;20720;-59
2021/12/02 00:06:26;;;;;;;5.82;1.75;;;11.10;88.40;;;;;;4937575;29;20213;-61
2021/12/02 00:08:52;;;;;;;6.30;2.00;;;11.20;87.90;;;;;;4936990;29;20217;-61
2021/12/02 00:11:21;;;;;;;6.00;1.60;;;11.20;87.80;;;;;;4937818;29;20284;-61
2021/12/02 00:21:23;;;;;;;10.10;2.42;;;10.90;89.70;;;;;;4937341;29;20266;-62
2021/12/02 00:24:00;;;;;;;9.40;2.15;;;10.80;90.20;;;;;;4936236;29;20201;-63
2021/12/02 00:26:27;;;;;;;6.47;2.00;;;10.90;89.60;;;;;;4937957;29;20184;-62
2021/12/02 00:28:56;;;;;;;7.88;2.03;;;11.00;89.80;;;;;;4937401;29;20265;-65
2021/12/02 00:31:25;;;;;;;5.57;2.10;;;11.00;90.00;;;;;;4952546;29;20256;-63
2021/12/02 00:33:54;;;;;;;12.10;2.40;;;10.90;90.10;;;;;;4938838;29;20188;-63
2021/12/02 00:36:22;;;;;;;9.95;2.60;;;10.90;90.20;;;;;;4939622;29;20249;-62
2021/12/02 00:38:48;;;;;;;9.32;2.13;;;11.00;90.10;;;;;;4940534;29;20229;-63
2021/12/02 00:41:17;;;;;;;9.00;2.53;;;11.10;89.90;;;;;;4954433;29;20703;-60
2021/12/02 00:43:45;;;;;;;6.40;1.90;;;11.20;89.70;;;;;;4940539;29;20186;-66
2021/12/02 00:46:14;;;;;;;6.00;2.38;;;11.10;90.00;;;;;;4940533;29;20653;-60
2021/12/02 00:48:41;;;;;;;5.70;2.80;;;11.00;90.20;;;;;;4939704;29;20257;-60
2021/12/02 00:51:08;;;;;;;10.43;2.13;;;10.90;90.40;;;;;;4937225;29;20190;-61
2021/12/02 00:53:36;;;;;;;6.47;2.25;;;10.90;90.50;;;;;;4938300;29;20173;-64
2021/12/02 00:56:05;;;;;;;9.60;2.42;;;10.90;90.50;;;;;;4952525;28;20185;-59
2021/12/02 00:58:32;;;;;;;5.53;2.08;;;10.90;90.60;;;;;;4936304;29;20202;-61
2021/12/02 01:00:58;;;;;;;5.72;1.83;;;11.00;90.70;;;;;;4937494;29;20619;-64
2021/12/02 01:03:35;;;;;;;8.88;2.50;;;11.10;90.10;;;;;;4936355;29;20173;-60
2021/12/02 01:06:06;;;;;;;10.27;2.22;;;11.10;90.00;;;;;;4936593;29;20608;-62
2021/12/02 01:08:33;;;;;;;8.13;2.28;;;11.20;89.70;;;;;;4936056;29;20248;-62
2021/12/02 01:10:59;;;;;;;8.60;2.33;;;11.20;89.60;;;;;;4936299;29;20231;-61
2021/12/02 01:13:25;;;;;;;9.73;2.17;;;11.20;89.50;;;;;;4936245;29;20189;-63
2021/12/02 01:15:51;;;;;;;9.32;2.53;;;11.10;89.90;;;;;;4935612;29;20257;-62
2021/12/02 01:18:17;;;;;;;11.23;2.55;;;11.20;89.80;;;;;;4935975;29;20193;-59
2021/12/02 01:20:47;;;;;;;9.98;2.03;;;11.20;90.00;;;;;;4936233;29;20240;-61
2021/12/02 01:23:15;;;;;;;7.72;1.63;;;11.30;89.30;;;;;;4934285;28;20276;-61
2021/12/02 01:25:42;;;;;;;6.60;1.77;;;11.40;89.00;;;;;;4935804;29;20607;-64
2021/12/02 01:28:09;;;;;;;6.68;1.90;;;11.40;88.60;;;;;;4936182;29;20202;-59
2021/12/02 01:30:34;;;;;;;7.68;1.48;;;11.40;88.50;;;;;;4935936;29;20177;-61
2021/12/02 01:33:07;;;;;;;6.35;1.65;;;11.40;88.60;;;;;;4936474;29;20170;-60
2021/12/02 01:35:34;;;;;;;4.55;1.48;;;11.40;88.70;;;;;;4935440;29;20187;-60
2021/12/02 01:38:01;;;;;;;6.30;2.20;;;11.60;88.10;;;;;;4935526;29;20323;-61
2021/12/02 01:40:27;;;;;;;6.93;1.70;;;11.50;88.10;;;;;;4935269;29;20189;-62
2021/12/02 01:42:58;;;;;;;4.97;1.30;;;11.40;88.80;;;;;;4935642;29;20550;-60
2021/12/02 01:45:29;;;;;;;9.10;1.70;;;11.40;89.00;;;;;;4935338;29;20177;-61
2021/12/02 01:47:56;;;;;;;5.82;1.45;;;11.40;89.20;;;;;;4935367;29;20193;-61
2021/12/02 01:50:25;;;;;;;3.50;1.50;;;11.40;89.00;;;;;;4935241;29;20181;-60
2021/12/02 01:52:59;;;;;;;6.25;1.95;;;11.40;89.00;;;;;;4935462;29;20229;-62
2021/12/02 01:55:28;;;;;;;7.15;1.67;;;11.40;89.00;;;;;;4935465;29;20180;-61
2021/12/02 01:58:01;;;;;;;4.65;1.55;;;11.40;89.50;;;;;;4935445;29;20177;-60
2021/12/02 02:00:44;;;;;;;5.90;1.42;;;11.40;89.40;;;;;;4935376;29;20264;-62
2021/12/02 02:03:12;;;;;;;5.20;1.45;;;11.40;89.40;;;;;;4935354;29;20189;-61
2021/12/02 02:05:39;;;;;;;9.00;1.75;;;11.40;88.80;;;;;;4935496;29;20182;-62
2021/12/02 02:08:15;;;;;;;8.75;1.73;;;11.40;89.00;;;;;;4935363;29;20208;-62
2021/12/02 02:10:41;;;;;;;7.40;1.85;;;11.30;89.00;;;;;;4935758;29;20177;-62
2021/12/02 02:13:10;;;;;;;6.18;1.48;;;11.30;89.40;;;;;;4935159;29;20193;-61
2021/12/02 02:15:38;;;;;;;11.50;1.90;;;11.40;89.10;;;;;;4937291;29;20182;-62
2021/12/02 02:18:10;;;;;;;6.80;1.35;;;11.50;88.60;;;;;;4938602;29;20325;-61
2021/12/02 02:20:40;;;;;;;3.88;1.05;;;11.50;88.70;;;;;;4938785;29;20205;-61
2021/12/02 02:23:09;;;;;;;7.65;1.80;;;11.50;88.60;;;;;;4938414;29;20735;-61
2021/12/02 02:25:35;;;;;;;5.20;1.60;;;11.40;88.70;;;;;;4938587;29;20196;-62
2021/12/02 02:28:01;;;;;;;5.90;1.33;;;11.40;89.00;;;;;;4938284;29;20661;-63
2021/12/02 02:30:26;;;;;;;8.25;1.73;;;11.40;89.10;;;;;;4938579;29;20170;-62
2021/12/02 02:32:52;;;;;;;8.45;1.45;;;11.40;88.50;;;;;;4938549;29;20234;-61
2021/12/02 02:35:18;;;;;;;6.78;1.40;;;11.50;88.60;;;;;;4938266;29;20178;-64
2021/12/02 02:37:44;;;;;;;6.00;1.40;;;11.50;88.50;;;;;;4938275;29;20268;-64
2021/12/02 02:40:12;;;;;;;8.27;2.03;;;11.30;89.20;;;;;;4938376;29;20174;-65
2021/12/02 02:42:39;;;;;;;7.55;1.77;;;11.30;89.60;;;;;;4938337;29;20213;-60
2021/12/02 02:45:05;;;;;;;4.32;1.40;;;11.30;89.70;;;;;;4938474;29;20186;-69
2021/12/02 02:47:31;;;;;;;6.05;1.63;;;11.30;89.90;;;;;;4937985;29;20178;-62
2021/12/02 02:49:57;;;;;;;7.72;1.35;;;11.20;89.80;;;;;;4938148;29;20190;-64
2021/12/02 02:52:23;;;;;;;5.55;1.73;;;11.20;90.00;;;;;;4938099;29;20182;-65
2021/12/02 02:54:49;;;;;;;7.30;1.60;;;11.20;90.20;;;;;;4937819;28;20233;-64
2021/12/02 02:57:18;;;;;;;3.10;1.00;;;11.20;90.10;;;;;;4937976;29;20182;-62
2021/12/02 03:05:26;;;;;;;5.78;1.58;;;11.00;90.50;;;;;;4938084;29;20625;-62
2021/12/02 03:07:56;;;;;;;5.68;1.70;;;11.00;90.50;;;;;;4937830;29;20280;-67
2021/12/02 03:18:27;;;;;;;7.03;1.50;;;11.10;90.30;;;;;;4937800;29;20354;-65
2021/12/02 03:20:55;;;;;;;2.83;1.17;;;11.10;90.40;;;;;;4937601;29;20202;-62
2021/12/02 03:23:22;;;;;;;3.63;1.27;;;11.10;90.40;;;;;;4937340;29;20238;-62
2021/12/02 03:25:48;;;;;;;8.35;1.60;;;11.10;90.50;;;;;;4937305;29;20184;-62
2021/12/02 03:28:14;;;;;;;5.07;1.60;;;11.00;90.60;;;;;;4951147;28;20292;-68
2021/12/02 03:30:39;;;;;;;3.20;1.65;;;11.10;90.60;;;;;;4937517;29;20182;-60
2021/12/02 03:33:05;;;;;;;2.55;1.60;;;11.00;90.50;;;;;;4937503;29;20178;-62
2021/12/02 03:35:31;;;;;;;3.90;1.40;;;11.10;90.60;;;;;;4937282;29;20178;-62
2021/12/02 03:37:57;;;;;;;5.90;1.83;;;11.10;90.70;;;;;;4939258;29;20185;-60
2021/12/02 03:40:23;;;;;;;6.97;1.50;;;11.10;90.60;;;;;;4937828;29;20182;-59
2021/12/02 03:42:51;;;;;;;10.45;2.30;;;11.20;90.60;;;;;;4937095;29;20177;-61
2021/12/02 03:45:18;;;;;;;9.80;1.67;;;11.40;90.30;;;;;;4937440;29;20174;-61
2021/12/02 03:47:44;;;;;;;7.38;1.83;;;11.20;90.60;;;;;;4936885;29;20225;-61
2021/12/02 03:50:09;;;;;;;5.32;1.73;;;11.30;90.50;;;;;;4937021;29;20328;-60
2021/12/02 03:52:36;;;;;;;6.30;1.52;;;11.30;90.50;;;;;;4936905;29;20693;-61
2021/12/02 03:55:02;;;;;;;6.35;1.80;;;11.20;90.60;;;;;;4937076;29;20228;-59
2021/12/02 03:57:31;;;;;;;11.57;2.25;;;11.30;90.50;;;;;;4936866;29;20186;-61
2021/12/02 03:59:57;;;;;;;5.38;2.20;;;11.30;90.50;;;;;;4936750;29;20653;-59
2021/12/02 04:02:23;;;;;;;5.85;2.03;;;11.40;90.50;;;;;;4936704;29;20217;-60
2021/12/02 04:04:49;;;;;;;9.32;2.28;;;11.40;90.50;;;;;;4936830;29;20189;-64
2021/12/02 04:07:17;;;;;;;7.88;2.42;;;11.30;90.60;;;;;;4936775;29;20181;-59
2021/12/02 04:09:44;;;;;;;5.32;2.00;;;11.30;90.60;;;;;;4936473;28;20205;-61
2021/12/02 04:12:18;;;;;;;9.15;2.20;;;11.40;90.50;;;;;;4936614;29;20610;-61
2021/12/02 04:14:57;;;;;;;7.88;2.35;;;11.40;90.60;;;;;;4936591;29;20181;-64
2021/12/02 04:17:39;;;;;;;12.50;2.70;;;11.30;90.60;;;;;;4936358;29;20273;-65
2021/12/02 04:20:06;;;;;;;10.60;2.08;;;11.20;90.90;;;;;;4936538;29;20623;-62
2021/12/02 04:22:31;;;;;;;6.57;1.75;;;11.20;90.90;;;;;;4936219;29;20236;-61
2021/12/02 04:24:57;;;;;;;9.57;1.50;;;11.20;90.80;;;;;;4936502;29;20177;-63
2021/12/02 04:27:23;;;;;;;6.18;1.88;;;11.20;91.00;;;;;;4936222;29;20236;-63
2021/12/02 04:29:48;;;;;;;14.73;2.40;;;11.20;91.40;;;;;;4936428;29;20217;-63
2021/12/02 04:32:14;;;;;;;8.93;2.22;;;11.10;91.30;;;;;;4936265;29;20189;-62
2021/12/02 04:34:40;;;;;;;8.57;2.13;;;11.20;91.30;;;;;;4936182;29;20645;-64
2021/12/02 04:37:05;;;;;;;7.65;1.90;;;11.30;91.10;;;;;;4935056;29;20185;-64
2021/12/02 04:39:31;;;;;;;10.20;1.60;;;11.30;91.10;;;;;;4935861;29;20696;-66
2021/12/02 04:41:57;;;;;;;14.38;1.60;;;11.50;90.80;;;;;;4936282;29;20685;-63
2021/12/02 04:44:23;;;;;;;6.82;1.40;;;11.50;90.50;;;;;;4935974;29;20263;-65
2021/12/02 04:46:50;;;;;;;9.60;1.98;;;11.50;90.70;;;;;;4936505;29;20260;-64
2021/12/02 04:49:16;;;;;;;7.97;1.73;;;11.50;90.80;;;;;;4935991;29;20197;-62
2021/12/02 04:51:42;;;;;;;7.75;1.67;;;11.40;90.90;;;;;;4936102;29;20306;-61
2021/12/02 04:54:07;;;;;;;10.80;2.17;;;11.50;90.80;;;;;;4936379;29;20228;-61
2021/12/02 04:56:33;;;;;;;8.82;1.77;;;11.60;90.70;;;;;;4935755;29;20178;-61
2021/12/02 04:58:59;;;;;;;9.90;2.00;;;11.50;90.70;;;;;;4936009;29;20288;-59
2021/12/02 05:01:24;;;;;;;14.75;2.05;;;11.50;91.00;;;;;;4935881;29;20724;-61
2021/12/02 05:03:50;;;;;;;16.25;2.25;;;11.50;90.90;;;;;;4935808;29;20546;-61
2021/12/02 05:06:16;;;;;;;6.90;1.48;;;11.50;90.90;;;;;;4950561;28;20193;-60
2021/12/02 05:08:42;;;;;;;10.73;1.77;;;11.60;90.80;;;;;;4935838;29;20220;-60
2021/12/02 05:11:08;;;;;;;11.20;2.15;;;11.50;90.50;;;;;;4935626;29;20245;-59
2021/12/02 05:13:34;;;;;;;8.23;1.90;;;11.50;90.20;;;;;;4935849;29;20260;-61
2021/12/02 05:16:00;;;;;;;7.22;1.98;;;11.60;90.40;;;;;;4935729;29;20317;-61
2021/12/02 05:18:25;;;;;;;10.38;2.15;;;11.70;90.30;;;;;;4935812;29;20197;-64
2021/12/02 05:20:51;;;;;;;6.53;1.45;;;11.80;89.90;;;;;;4935690;29;20300;-59
2021/12/02 05:23:17;;;;;;;7.32;1.70;;;11.80;89.20;;;;;;4935473;29;20225;-61
2021/12/02 05:25:46;;;;;;;13.57;2.03;;;11.80;88.90;;;;;;4935823;29;20598;-64
2021/12/02 05:28:15;;;;;;;6.18;1.65;;;11.90;89.10;;;;;;4935338;29;20225;-62
2021/12/02 05:30:40;;;;;;;10.30;1.98;;;11.80;89.80;;;;;;4935585;29;20177;-63
2021/12/02 05:33:06;;;;;;;11.05;1.42;;;11.80;89.90;;;;;;4935565;29;20595;-61
2021/12/02 05:35:32;;;;;;;10.50;2.17;;;11.70;90.10;;;;;;4935336;29;20588;-60
2021/12/02 05:37:57;;;;;;;11.07;2.20;;;11.60;90.50;;;;;;4935485;29;20184;-62
2021/12/02 05:40:23;;;;;;;8.48;1.88;;;11.60;90.50;;;;;;4935287;29;20181;-61
2021/12/02 05:42:49;;;;;;;13.60;2.05;;;11.60;90.80;;;;;;4935522;29;20235;-62
2021/12/02 05:45:14;;;;;;;10.80;1.92;;;11.60;90.90;;;;;;4935757;29;20178;-64
2021/12/02 05:47:40;;;;;;;14.85;2.63;;;11.60;90.80;;;;;;4935174;29;20197;-63
2021/12/02 05:50:06;;;;;;;8.85;2.00;;;11.60;90.90;;;;;;4936999;29;20658;-64
2021/12/02 05:52:32;;;;;;;18.77;1.88;;;11.50;91.30;;;;;;4939407;29;20252;-59
2021/12/02 05:54:58;;;;;;;8.05;2.33;;;11.50;91.10;;;;;;4939283;29;20177;-60
2021/12/02 05:57:24;;;;;;;5.60;1.73;;;11.50;91.20;;;;;;4939237;29;20189;-61
2021/12/02 05:59:50;;;;;;;13.02;2.20;;;11.60;91.00;;;;;;4939077;29;20692;-65
2021/12/02 06:02:16;;;;;;;13.65;2.88;;;11.70;90.80;;;;;;4939017;29;20201;-62
2021/12/02 06:04:43;;;;;;;14.20;2.33;;;11.70;90.60;;;;;;4939264;29;20613;-60
2021/12/02 06:07:09;;;;;;;17.08;2.65;;;11.70;90.60;;;;;;4938988;29;20664;-60
2021/12/02 06:09:34;;;;;;;12.13;2.38;;;11.70;90.50;;;;;;4938927;29;20201;-60
2021/12/02 06:12:00;;;;;;;8.93;2.08;;;11.80;90.50;;;;;;4938856;29;20181;-61
2021/12/02 06:14:26;;;;;;;20.88;2.55;;;11.70;90.50;;;;;;4938816;29;20721;-61
2021/12/02 06:16:52;;;;;;;10.40;2.40;;;11.80;90.80;;;;;;4937545;29;20241;-60
2021/12/02 06:19:18;;;;;;;13.13;2.53;;;11.80;90.30;;;;;;4938551;29;20268;-60
2021/12/02 06:21:44;;;;;;;10.43;2.30;;;11.80;90.30;;;;;;4938629;29;20237;-60
2021/12/02 06:24:09;;;;;;;11.82;2.92;;;11.80;90.20;;;;;;4939179;29;20177;-60
2021/12/02 06:26:37;;;;;;;11.18;2.50;;;11.90;90.20;;;;;;4939684;29;20332;-60
2021/12/02 06:29:03;;;;;;;9.85;2.67;;;11.80;90.30;;;;;;4938419;29;20209;-59
2021/12/02 06:31:28;;;;;;;13.85;2.97;;;11.70;90.50;;;;;;4938197;29;20185;-61
2021/12/02 06:33:54;;;;;;;11.25;3.15;;;11.70;90.60;;;;;;4938248;29;20182;-60
2021/12/02 06:36:20;;;;;;;9.60;3.05;;;11.70;90.70;;;;;;4938274;29;20252;-61
2021/12/02 06:38:46;;;;;;;10.32;2.65;;;11.70;90.70;;;;;;4953152;28;20221;-59
2021/12/02 06:41:12;;;;;;;12.70;3.38;;;11.70;90.70;;;;;;4938083;29;20208;-61
2021/12/02 06:43:37;;;;;;;9.63;3.35;;;11.50;91.30;;;;;;4938078;29;20712;-59
2021/12/02 06:46:03;;;;;;;10.52;3.60;;;11.60;91.20;;;;;;4938362;29;20260;-61
2021/12/02 06:48:29;;;;;;;10.13;3.50;;;11.60;91.20;;;;;;4937874;29;20684;-61
2021/12/02 06:50:54;;;;;;;8.80;3.50;;;11.60;91.30;;;;;;4938242;29;20205;-60
2021/12/02 06:53:20;;;;;;;10.90;4.53;;;11.60;91.20;;;;;;4937987;29;20185;-60
2021/12/02 06:55:46;;;;;;;15.15;4.53;;;11.60;91.20;;;;;;4936560;29;20181;-59
2021/12/02 06:58:12;;;;;;;11.55;3.97;;;11.60;91.40;;;;;;4952527;28;20205;-60
2021/12/02 07:00:37;;;;;;;14.85;4.85;;;11.60;91.30;;;;;;4937461;29;20197;-59
2021/12/02 07:03:03;;;;;;;15.93;4.70;;;11.40;91.40;;;;;;4937751;29;20523;-61
2021/12/02 07:05:32;;;;;;;18.27;5.43;;;11.40;91.70;;;;;;4937803;29;20268;-62
2021/12/02 07:07:58;;;;;;;11.50;5.10;;;11.40;91.60;;;;;;4937445;28;20649;-60
2021/12/02 07:10:25;;;;;;;13.50;6.85;;;11.40;91.90;;;;;;4952699;29;20182;-56
2021/12/02 07:12:55;;;;;;;20.30;6.30;;;11.70;92.60;;;;;;4937721;29;20188;-57
2021/12/02 07:15:34;;;;;;;14.05;5.13;;;12.20;92.30;;;;;;4937619;29;20261;-57
2021/12/02 07:18:01;;;;;;;6.72;3.83;;;12.60;90.90;;;;;;4937106;29;20193;-56
2021/12/02 07:20:34;;;;;;;9.07;3.40;;;12.80;89.40;;;;;;4937159;29;20680;-55
2021/12/02 07:23:00;;;;;;;7.00;3.15;;;13.00;86.80;;;;;;4937357;29;20230;-58
2021/12/02 07:25:27;;;;;;;6.53;3.58;;;12.40;87.40;;;;;;4937214;29;20185;-57
2021/12/02 07:27:53;;;;;;;6.55;3.75;;;12.40;88.80;;;;;;4937118;29;20692;-59
2021/12/02 07:30:18;;;;;;;7.50;3.80;;;12.30;88.40;;;;;;4937141;29;20202;-57
2021/12/02 07:32:50;;;;;;;5.28;3.60;;;12.40;87.70;;;;;;4937376;29;20265;-63
2021/12/02 07:35:17;;;;;;;6.82;3.00;;;12.30;87.50;;;;;;4936862;29;20634;-58
2021/12/02 07:37:46;;;;;;;6.03;3.17;;;12.20;88.10;;;;;;4937165;29;20241;-58
2021/12/02 07:40:13;;;;;;;5.50;3.17;;;12.40;88.00;;;;;;4937078;29;20213;-59
2021/12/02 07:42:39;;;;;;;3.22;2.85;;;12.60;86.80;;;;;;4936658;29;20213;-59
2021/12/02 07:45:07;;;;;;;6.95;3.00;;;12.60;85.70;;;;;;4936996;29;20305;-59
2021/12/02 07:47:34;;;;;;;8.77;3.13;;;12.50;85.80;;;;;;4936597;29;20193;-58
2021/12/02 07:49:59;;;;;;;6.18;4.57;;;12.20;86.10;;;;;;4936806;29;20691;-60
2021/12/02 07:52:26;;;;;;;9.88;4.38;;;12.10;86.90;;;;;;4936023;28;20181;-59
2021/12/02 07:54:55;;;;;;;9.48;3.47;;;12.10;86.90;;;;;;4936577;29;20178;-62
2021/12/02 07:57:21;;;;;;;8.10;3.45;;;12.10;86.70;;;;;;4936752;29;20590;-62
2021/12/02 07:59:52;;;;;;;9.35;4.47;;;12.00;86.90;;;;;;4936629;29;20230;-59
2021/12/02 08:02:18;;;;;;;6.78;2.67;;;11.70;86.70;;;;;;4936564;29;20221;-61
2021/12/02 08:04:45;;;;;;;4.25;2.60;;;11.50;88.00;;;;;;4935492;28;20181;-64
2021/12/02 08:07:11;;;;;;;10.27;4.28;;;11.50;88.40;;;;;;4936634;29;20547;-60
2021/12/02 08:09:37;;;;;;;6.82;3.55;;;11.40;89.20;;;;;;4949804;28;20216;-61
2021/12/02 08:12:03;;;;;;;5.00;2.40;;;11.30;88.60;;;;;;4954289;28;20276;-58
2021/12/02 08:14:30;;;;;;;5.75;2.00;;;11.30;88.20;;;;;;4954299;28;20181;-61
2021/12/02 08:16:56;;;;;;;7.75;1.90;;;11.40;89.00;;;;;;4954581;28;20181;-62
2021/12/02 08:19:21;;;;;;;2.83;1.58;;;11.40;89.10;;;;;;4954369;28;20291;-61
2021/12/02 08:21:47;;;;;;;3.90;1.45;;;11.10;88.40;;;;;;4952816;29;20240;-61
2021/12/02 08:24:13;;;;;;;1.33;1.23;;;10.90;89.40;;;;;;4954107;28;20219;-61
2021/12/02 08:26:39;;;;;;;2.45;1.42;;;10.80;90.00;;;;;;4954432;28;20196;-61
2021/12/02 08:29:06;;;;;;;6.60;3.72;;;10.70;90.00;;;;;;4953084;28;20220;-61
2021/12/02 08:31:32;;;;;;;4.15;1.55;;;10.80;90.00;;;;;;4954109;28;20180;-61
2021/12/02 08:33:58;;;;;;;2.42;1.50;;;10.70;90.30;;;;;;4954098;28;20181;-61
2021/12/02 08:36:28;;;;;;;3.67;1.92;;;10.60;90.10;;;;;;4954082;28;20189;-61
2021/12/02 08:38:54;;;;;;;3.05;1.70;;;10.80;90.10;;;;;;4954011;28;20672;-61
2021/12/02 08:41:20;;;;;;;3.70;1.20;;;10.90;89.90;;;;;;4953667;28;20404;-62
2021/12/02 08:43:47;;;;;;;3.83;2.13;;;11.00;88.70;;;;;;4952996;28;20207;-60
2021/12/02 08:46:13;;;;;;;8.02;4.50;;;11.10;89.10;;;;;;4954282;28;20255;-61
2021/12/02 08:48:39;;;;;;;4.72;2.00;;;11.20;88.60;;;;;;4954384;28;20672;-61
2021/12/02 08:51:05;;;;;;;4.13;1.67;;;11.20;88.10;;;;;;4954436;28;20187;-60
2021/12/02 08:53:30;;;;;;;2.90;1.42;;;11.20;87.30;;;;;;4954873;28;20185;-62
2021/12/02 08:55:56;;;;;;;4.90;1.60;;;11.30;87.30;;;;;;4954979;28;20255;-64
2021/12/02 08:58:22;;;;;;;2.97;1.73;;;11.30;87.50;;;;;;4953707;28;20196;-62
2021/12/02 09:00:48;;;;;;;3.38;1.42;;;11.30;88.40;;;;;;4953740;28;20195;-62
2021/12/02 09:03:15;;;;;;;4.47;1.65;;;11.30;88.10;;;;;;4953649;28;20283;-63
2021/12/02 09:05:41;;;;;;;5.18;1.50;;;11.30;88.40;;;;;;4952358;29;20189;-63
2021/12/02 09:08:07;;;;;;;3.75;1.20;;;11.30;88.60;;;;;;4953421;28;20204;-60
2021/12/02 09:10:34;;;;;;;2.92;1.20;;;11.40;86.30;;;;;;4952124;29;20204;-61
2021/12/02 09:13:07;;;;;;;6.03;1.00;;;11.40;85.80;;;;;;4952503;28;20206;-62
2021/12/02 09:15:33;;;;;;;3.25;2.00;;;11.40;86.40;;;;;;4953495;28;20185;-60
2021/12/02 09:17:58;;;;;;;5.32;1.77;;;11.40;87.40;;;;;;4954107;28;20271;-65
2021/12/02 09:20:24;;;;;;;1.52;1.42;;;11.40;87.50;;;;;;4953352;28;20185;-63
2021/12/02 09:22:50;;;;;;;2.25;1.20;;;11.50;87.30;;;;;;4952965;28;20239;-63
2021/12/02 09:25:17;;;;;;;1.52;1.40;;;11.40;87.40;;;;;;4953079;28;20637;-59
2021/12/02 09:27:43;;;;;;;2.55;1.63;;;11.40;87.70;;;;;;4957063;28;20189;-60
2021/12/02 09:30:09;;;;;;;4.10;2.08;;;11.30;88.20;;;;;;4957055;28;20173;-59
2021/12/02 09:32:36;;;;;;;4.28;3.00;;;11.40;88.30;;;;;;4956885;28;20181;-63
2021/12/02 09:35:03;;;;;;;6.43;4.10;;;11.40;88.20;;;;;;4957467;28;20198;-65
2021/12/02 09:37:28;;;;;;;6.95;3.72;;;11.40;88.60;;;;;;4957232;28;20203;-60
2021/12/02 09:39:54;;;;;;;2.47;2.13;;;11.30;88.80;;;;;;4957437;28;20204;-64
2021/12/02 09:42:21;;;;;;;4.47;2.70;;;11.40;88.60;;;;;;4957188;28;20221;-66
2021/12/02 09:44:48;;;;;;;3.90;2.42;;;11.50;87.80;;;;;;4958015;28;20231;-61
2021/12/02 09:47:16;;;;;;;4.97;3.00;;;11.50;87.60;;;;;;4958211;28;20184;-61
2021/12/02 09:49:42;;;;;;;7.32;3.65;;;11.50;87.70;;;;;;4957571;28;20240;-64
2021/12/02 09:52:12;;;;;;;4.13;2.55;;;11.50;87.80;;;;;;4956895;28;20603;-64
2021/12/02 09:54:42;;;;;;;5.00;3.90;;;11.50;88.50;;;;;;4956592;28;20235;-64
2021/12/02 09:57:13;;;;;;;3.08;2.83;;;11.50;88.20;;;;;;4956702;28;20184;-65
2021/12/02 10:02:07;;;;;;;5.47;2.80;;;11.50;88.30;;;;;;4957408;28;20719;-62
2021/12/02 10:04:39;;;;;;;3.60;3.00;;;11.40;88.50;;;;;;4958083;28;20183;-64
2021/12/02 10:07:46;;;;;;;3.90;3.22;;;11.50;89.00;;;;;;4957467;28;20185;-63
2021/12/02 10:10:16;;;;;;;6.05;3.50;;;11.50;89.20;;;;;;4957484;28;20196;-65
2021/12/02 10:13:32;;;;;;;3.67;2.38;;;11.30;89.60;;;;;;4957806;28;20177;-64
2021/12/02 10:16:19;;;;;;;6.30;3.38;;;11.30;88.90;;;;;;4956964;29;20180;-64
2021/12/02 10:21:49;;;;;;;5.20;2.17;;;11.50;89.50;;;;;;4947973;28;20228;-64
2021/12/02 10:24:24;;;;;;;6.25;2.30;;;11.50;88.50;;;;;;4956790;28;20193;-63
2021/12/02 10:26:52;;;;;;;6.90;4.70;;;11.50;88.30;;;;;;4956179;29;20188;-64
2021/12/02 10:29:33;;;;;;;12.95;6.50;;;11.50;89.20;;;;;;4957856;28;20561;-64
2021/12/02 10:32:13;;;;;;;6.75;3.75;;;11.40;88.60;;;;;;4956226;28;20185;-61
2021/12/02 10:34:58;;;;;;;8.00;4.00;;;11.50;87.80;;;;;;4956414;28;20670;-63
2021/12/02 10:37:30;;;;;;;5.75;3.40;;;11.40;88.40;;;;;;4956822;28;20184;-63
2021/12/02 10:40:00;;;;;;;3.50;2.30;;;11.40;88.60;;;;;;4957797;28;20201;-64
2021/12/02 10:42:27;;;;;;;5.22;2.53;;;11.40;88.30;;;;;;4957457;28;20564;-64
2021/12/02 10:44:57;;;;;;;2.95;1.90;;;11.50;87.50;;;;;;4957252;28;20569;-64
2021/12/02 10:47:23;;;;;;;2.70;2.10;;;11.50;87.60;;;;;;4953338;28;20263;-65
2021/12/02 10:49:56;;;;;;;3.92;2.28;;;11.50;87.80;;;;;;4956511;28;20226;-57
2021/12/02 10:52:28;;;;;;;5.07;2.78;;;11.50;87.80;;;;;;4956848;28;20189;-60
2021/12/02 10:55:11;;;;;;;5.05;2.45;;;11.40;88.30;;;;;;4955795;28;20217;-60
2021/12/02 10:57:43;;;;;;;4.65;2.58;;;11.40;88.20;;;;;;4955721;28;20208;-61
2021/12/02 11:00:12;;;;;;;4.80;2.72;;;11.40;88.70;;;;;;4954796;28;20177;-70
2021/12/02 11:02:52;;;;;;;9.45;4.93;;;11.40;88.60;;;;;;4954298;28;20217;-59
2021/12/02 11:05:28;;;;;;;11.43;6.10;;;11.40;88.80;;;;;;4955494;28;20192;-66
2021/12/02 11:08:07;;;;;;;9.20;6.28;;;11.40;88.90;;;;;;4955418;28;20192;-62
2021/12/02 11:10:35;;;;;;;11.50;6.57;;;11.40;89.30;;;;;;4955997;28;20617;-57
2021/12/02 11:13:01;;;;;;;9.00;5.07;;;11.30;89.50;;;;;;4956741;28;20708;-58
2021/12/02 11:15:29;;;;;;;4.88;3.97;;;11.40;89.20;;;;;;4956845;28;20173;-60
2021/12/02 11:17:57;;;;;;;8.27;4.80;;;11.40;89.00;;;;;;4955784;28;20177;-59
2021/12/02 11:20:34;;;;;;;8.15;5.22;;;11.40;89.20;;;;;;4938263;28;20185;-65
2021/12/02 11:23:27;;;;;;;8.15;4.60;;;11.50;89.10;;;;;;4940332;28;20244;-60
2021/12/02 11:25:57;;;;;;;7.88;4.38;;;11.50;88.00;;;;;;4952462;28;20193;-64
2021/12/02 11:28:35;;;;;;;7.40;5.13;;;11.50;87.80;;;;;;4942704;28;20307;-58
2021/12/02 11:31:11;;;;;;;2.90;2.20;;;11.60;87.50;;;;;;4956191;28;20631;-64
2021/12/02 11:33:39;;;;;;;3.95;2.58;;;11.70;86.10;;;;;;4955901;28;20593;-58
2021/12/02 11:36:18;;;;;;;6.55;3.60;;;11.70;86.00;;;;;;4947617;28;20205;-60
2021/12/02 11:38:43;;;;;;;5.78;3.88;;;11.70;87.20;;;;;;4952639;28;20267;-62
2021/12/02 11:41:09;;;;;;;6.45;3.30;;;11.70;86.70;;;;;;4956039;28;20576;-59
2021/12/02 11:43:38;;;;;;;5.03;3.38;;;11.70;87.50;;;;;;4944893;28;20217;-60
2021/12/02 11:46:06;;;;;;;7.07;4.88;;;11.70;86.50;;;;;;4936443;28;20189;-61
2021/12/02 11:48:41;;;;;;;6.65;4.72;;;11.80;86.30;;;;;;4937785;28;20260;-61
2021/12/02 11:51:20;;;;;;;5.43;3.90;;;11.90;85.80;;;;;;4938798;28;20196;-59
2021/12/02 11:53:47;;;;;;;9.52;4.82;;;11.80;86.30;;;;;;4936408;28;20181;-58
2021/12/02 11:56:19;;;;;;;7.55;5.18;;;11.80;86.00;;;;;;4937884;28;20189;-62
2021/12/02 11:58:46;;;;;;;6.18;4.00;;;11.80;85.50;;;;;;4936606;28;20201;-64
2021/12/02 12:01:22;;;;;;;5.20;3.97;;;11.90;84.80;;;;;;4939710;28;20248;-61
2021/12/02 12:04:09;;;;;;;6.47;3.80;;;11.80;84.60;;;;;;4938835;28;20554;-62
2021/12/02 12:06:38;;;;;;;6.30;4.25;;;11.80;84.30;;;;;;4935611;28;20259;-62
2021/12/02 12:09:18;;;;;;;4.22;3.42;;;11.70;84.70;;;;;;4937130;28;20715;-65
2021/12/02 12:11:46;;;;;;;4.38;3.40;;;11.80;84.70;;;;;;4941006;28;20200;-66
2021/12/02 12:14:16;;;;;;;7.75;4.18;;;11.70;84.80;;;;;;4937884;28;20189;-64
2021/12/02 12:16:48;;;;;;;6.72;3.47;;;11.70;85.50;;;;;;4939296;28;20189;-62
2021/12/02 12:19:28;;;;;;;7.25;3.50;;;11.60;86.20;;;;;;4938414;28;20205;-61
2021/12/02 12:22:09;;;;;;;7.18;3.38;;;11.60;85.80;;;;;;4940164;28;20799;-61
2021/12/02 12:24:50;;;;;;;5.75;2.97;;;11.70;85.20;;;;;;4941191;28;20299;-63
2021/12/02 12:27:24;;;;;;;9.55;4.80;;;11.60;85.60;;;;;;4937163;28;20177;-67
2021/12/02 12:30:11;;;;;;;6.50;3.25;;;11.90;88.70;;;;;;4962661;28;20198;-66
2021/12/02 12:38:31;;;;;;;3.05;2.20;;;12.20;83.10;;;;;;4951312;28;20208;-61
2021/12/02 12:41:01;;;;;;;3.58;2.13;;;12.10;83.00;;;;;;4936799;28;20578;-61
2021/12/02 12:43:35;;;;;;;4.60;2.38;;;12.00;81.50;;;;;;4937058;28;20221;-61
2021/12/02 12:46:24;;;;;;;10.73;2.53;;;11.90;83.10;;;;;;4935729;28;20567;-61
2021/12/02 12:48:51;;;;;;;4.47;2.20;;;11.80;83.50;;;;;;4934887;28;20210;-63
2021/12/02 12:51:32;;;;;;;5.13;2.03;;;11.90;83.10;;;;;;4937334;28;20185;-65
2021/12/02 12:54:00;;;;;;;10.65;1.88;;;12.00;83.00;;;;;;4938797;28;20181;-62
2021/12/02 12:56:32;;;;;;;2.05;1.58;;;12.00;82.00;;;;;;4936443;28;20178;-62
2021/12/02 12:59:18;;;;;;;5.85;3.25;;;12.20;81.40;;;;;;4936191;28;20197;-59
2021/12/02 13:02:00;;;;;;;5.40;4.90;;;12.10;81.30;;;;;;4934617;28;20594;-58
2021/12/02 13:04:27;;;;;;;5.65;4.90;;;12.10;81.20;;;;;;4934668;28;20189;-67
2021/12/02 13:07:22;;;;;;;4.90;4.22;;;12.10;81.40;;;;;;4939691;28;20189;-60
2021/12/02 13:10:02;;;;;;;2.95;1.95;;;11.90;81.40;;;;;;4932142;28;20560;-61
2021/12/02 13:12:48;;;;;;;13.85;11.27;;;11.80;81.30;;;;;;4942191;28;20188;-63
2021/12/02 13:15:21;;;;;;;4.18;3.88;;;11.80;82.10;;;;;;4935592;28;20181;-68
2021/12/02 13:17:48;;;;;;;3.15;2.85;;;12.00;81.30;;;;;;4936471;28;20196;-65
2021/12/02 13:20:21;;;;;;;5.45;1.50;;;11.80;82.50;;;;;;4935083;28;20228;-64
2021/12/02 13:23:12;;;;;;;3.20;1.30;;;11.80;81.80;;;;;;4935070;28;20240;-62
2021/12/02 13:25:51;;;;;;;1.55;1.42;;;11.80;81.50;;;;;;4934229;28;20193;-61
2021/12/02 13:28:32;;;;;;;1.17;1.00;;;11.90;81.30;;;;;;4938151;28;20246;-62